Time;durP1;ratioP1;P1;durP2;ratioP2;P2;SDS_P1;SDS_P2;PMS_P1;PMS_P2;Temp;Humidity;BMP_temperature;BMP_pressure;BME280_temperature;BME280_humidity;BME280_pressure;Samples;Min_cycle;Max_cycle;Signal;HPM_P1;HPM_P2
2021/12/05 00:18:31;;;;;;;36.22;21.30;;;;;;;0.52;100.00;99197.50;5032651;28;20055;-73
2021/12/05 00:23:58;;;;;;;39.97;20.63;;;;;;;0.44;100.00;99197.75;5051404;28;20486;-74
2021/12/05 00:26:27;;;;;;;39.40;21.75;;;;;;;0.40;100.00;99205.81;5051775;28;20060;-74
2021/12/05 00:29:13;;;;;;;40.70;20.48;;;;;;;0.37;100.00;99200.66;5053135;28;20039;-73
2021/12/05 00:43:27;;;;;;;38.97;19.83;;;;;;;0.42;100.00;99207.47;5052747;28;20044;-72
2021/12/05 00:46:14;;;;;;;36.10;20.58;;;;;;;0.51;100.00;99195.78;5053062;28;20051;-71
2021/12/05 01:03:03;;;;;;;43.90;22.38;;;;;;;0.40;100.00;99188.31;5048767;28;20045;-73
2021/12/05 01:14:11;;;;;;;42.15;21.60;;;;;;;0.51;100.00;99191.38;5042496;28;20091;-73
2021/12/05 01:16:43;;;;;;;43.25;22.00;;;;;;;0.60;100.00;99195.44;5052433;28;20041;-72
2021/12/05 01:19:13;;;;;;;38.90;21.10;;;;;;;0.62;100.00;99192.75;5052864;28;20083;-72
2021/12/05 01:21:47;;;;;;;41.28;21.35;;;;;;;0.44;100.00;99189.88;5052071;28;20045;-72
2021/12/05 01:24:26;;;;;;;40.35;22.00;;;;;;;0.52;100.00;99187.84;5052397;28;20438;-72
2021/12/05 01:27:00;;;;;;;42.42;22.10;;;;;;;0.70;100.00;99180.22;5052662;28;20482;-72
2021/12/05 01:29:39;;;;;;;40.90;21.27;;;;;;;0.47;100.00;99178.41;5052309;28;20045;-79
2021/12/05 01:32:16;;;;;;;40.97;22.20;;;;;;;0.51;100.00;99180.03;5052721;28;20079;-76
2021/12/05 01:34:59;;;;;;;42.03;22.27;;;;;;;0.45;100.00;99170.59;5052389;28;20397;-77
2021/12/05 01:37:39;;;;;;;42.95;22.23;;;;;;;0.49;100.00;99181.88;5052407;28;20045;-77
2021/12/05 01:54:40;;;;;;;41.72;23.08;;;;;;;0.38;100.00;99163.88;5055950;28;20536;-73
2021/12/05 02:11:35;;;;;;;47.55;23.58;;;;;;;0.34;100.00;99143.91;5055717;28;20037;-73
2021/12/05 02:39:18;;;;;;;46.00;24.10;;;;;;;0.35;100.00;99127.25;5042241;28;20044;-71
2021/12/05 02:41:49;;;;;;;;;;;;;;;0.44;100.00;99120.81;5055457;28;20482;-71
2021/12/05 02:44:25;;;;;;;47.10;23.58;;;;;;;0.37;100.00;99120.19;5055405;28;19921;-71
2021/12/05 02:47:00;;;;;;;46.78;24.05;;;;;;;0.30;100.00;99115.25;5054620;28;20037;-72
2021/12/05 02:49:31;;;;;;;44.85;24.27;;;;;;;0.32;100.00;99106.41;5055162;28;20045;-71
2021/12/05 02:52:04;;;;;;;49.97;25.25;;;;;;;0.17;100.00;99117.44;5054700;28;20429;-72
2021/12/05 02:54:40;;;;;;;53.47;26.42;;;;;;;0.28;100.00;99120.50;5054494;28;20045;-72
2021/12/05 02:57:10;;;;;;;49.15;25.48;;;;;;;0.23;100.00;99117.22;5055013;28;20095;-72
2021/12/05 02:59:47;;;;;;;54.25;26.98;;;;;;;0.30;100.00;99121.34;5054590;28;20140;-72
2021/12/05 03:02:19;;;;;;;50.97;26.50;;;;;;;0.23;100.00;99111.97;5055003;28;20044;-72
2021/12/05 03:04:51;;;;;;;51.72;26.40;;;;;;;0.29;100.00;99117.00;5054168;28;20045;-72
2021/12/05 03:07:26;;;;;;;48.42;25.20;;;;;;;0.33;100.00;99112.50;5054557;28;20079;-72
2021/12/05 03:09:56;;;;;;;49.72;26.40;;;;;;;0.29;100.00;99117.00;5054428;28;20124;-72
2021/12/05 03:12:24;;;;;;;53.28;27.20;;;;;;;0.34;100.00;99125.56;5054530;28;20053;-71
2021/12/05 03:15:01;;;;;;;59.53;27.80;;;;;;;0.31;100.00;99125.66;5054010;28;20041;-72
2021/12/05 03:17:30;;;;;;;54.47;26.00;;;;;;;0.23;100.00;99117.22;5054484;28;20049;-71
2021/12/05 03:19:59;;;;;;;54.03;27.35;;;;;;;0.24;100.00;99113.69;5054086;28;20106;-73
2021/12/05 03:22:27;;;;;;;56.92;27.60;;;;;;;0.31;100.00;99115.19;5054558;28;20051;-72
2021/12/05 03:24:58;;;;;;;56.58;26.55;;;;;;;0.26;100.00;99123.19;5053742;28;20041;-72
2021/12/05 03:27:27;;;;;;;58.25;28.13;;;;;;;0.23;100.00;99122.47;5054377;28;20067;-70
2021/12/05 03:29:55;;;;;;;54.50;26.65;;;;;;;0.24;100.00;99119.78;5053636;28;20051;-69
2021/12/05 03:32:24;;;;;;;56.65;26.95;;;;;;;0.31;100.00;99123.06;5054043;28;20076;-68
2021/12/05 03:34:52;;;;;;;53.80;27.50;;;;;;;0.32;100.00;99114.25;5053965;28;20040;-67
2021/12/05 03:37:20;;;;;;;56.33;28.02;;;;;;;0.48;100.00;99112.78;5054220;28;20037;-73
2021/12/05 03:39:49;;;;;;;55.00;27.55;;;;;;;0.30;100.00;99112.63;5053887;28;20088;-73
2021/12/05 03:42:18;;;;;;;53.75;27.00;;;;;;;0.27;100.00;99127.53;5054022;28;20413;-72
2021/12/05 03:44:47;;;;;;;54.97;27.65;;;;;;;0.20;100.00;99122.59;5053671;28;20041;-74
2021/12/05 03:47:18;;;;;;;57.60;29.35;;;;;;;0.20;100.00;99122.59;5053910;28;20045;-74
2021/12/05 03:49:46;;;;;;;58.25;27.88;;;;;;;0.39;100.00;99122.78;5053246;28;20048;-70
2021/12/05 03:52:17;;;;;;;57.33;28.13;;;;;;;0.26;100.00;99127.59;5053683;28;20048;-69
2021/12/05 03:54:47;;;;;;;54.13;27.70;;;;;;;0.22;100.00;99126.00;5053420;28;20072;-70
2021/12/05 03:57:16;;;;;;;57.15;28.05;;;;;;;0.33;100.00;99123.00;5054023;28;20075;-69
2021/12/05 03:59:46;;;;;;;52.65;26.40;;;;;;;0.56;100.00;99131.69;5053335;28;20040;-69
2021/12/05 04:02:14;;;;;;;56.65;27.80;;;;;;;0.59;100.00;99130.75;5053585;28;20051;-68
2021/12/05 04:04:43;;;;;;;56.70;27.58;;;;;;;0.50;100.00;99121.47;5052863;28;20394;-69
2021/12/05 04:07:15;;;;;;;52.78;27.02;;;;;;;0.40;100.00;99122.72;5053464;28;20121;-68
2021/12/05 04:09:44;;;;;;;52.85;26.60;;;;;;;0.44;100.00;99126.06;5052853;28;20144;-72
2021/12/05 04:12:15;;;;;;;54.60;26.48;;;;;;;0.54;100.00;99114.31;5053446;28;20044;-72
2021/12/05 04:14:48;;;;;;;59.35;27.83;;;;;;;0.51;100.00;99123.16;5052922;28;20055;-72
2021/12/05 04:17:19;;;;;;;54.42;27.95;;;;;;;0.47;100.00;99124.19;5053611;28;20041;-71
2021/12/05 04:19:47;;;;;;;50.72;26.02;;;;;;;0.46;100.00;99124.25;5053284;28;20048;-73
2021/12/05 04:22:16;;;;;;;56.33;28.25;;;;;;;0.50;100.00;99115.34;5053405;28;20091;-73
2021/12/05 04:24:45;;;;;;;55.22;26.98;;;;;;;0.46;100.00;99113.75;5053158;28;20047;-72
2021/12/05 04:27:15;;;;;;;54.40;26.90;;;;;;;0.36;100.00;99115.84;5053536;28;20371;-72
2021/12/05 04:29:43;;;;;;;50.78;27.73;;;;;;;0.30;100.00;99116.09;5052850;28;20045;-73
2021/12/05 04:32:13;;;;;;;58.97;29.17;;;;;;;0.27;100.00;99113.56;5053652;28;20128;-71
2021/12/05 04:34:42;;;;;;;58.05;28.25;;;;;;;0.24;100.00;99109.28;5052766;28;20133;-73
2021/12/05 04:37:10;;;;;;;50.92;27.98;;;;;;;0.27;100.00;99118.81;5052838;28;20064;-72
2021/12/05 04:39:39;;;;;;;53.03;26.15;;;;;;;0.31;100.00;99125.66;5053267;28;20490;-72
2021/12/05 04:42:07;;;;;;;51.45;26.77;;;;;;;0.55;100.00;99119.50;5053056;28;20052;-75
2021/12/05 04:44:36;;;;;;;49.58;26.17;;;;;;;0.48;100.00;99136.41;5053325;28;20051;-75
2021/12/05 04:47:05;;;;;;;50.22;25.85;;;;;;;0.59;100.00;99133.38;5052887;28;20069;-75
2021/12/05 04:49:35;;;;;;;49.92;25.58;;;;;;;0.56;100.00;99142.19;5052961;28;20055;-75
2021/12/05 04:52:04;;;;;;;47.33;25.10;;;;;;;0.66;100.00;99131.38;5052565;28;20041;-75
2021/12/05 04:54:33;;;;;;;50.40;24.80;;;;;;;0.56;100.00;99131.69;5052633;28;20076;-75
2021/12/05 04:57:02;;;;;;;49.55;25.38;;;;;;;0.59;100.00;99120.25;5052344;28;20114;-75
2021/12/05 04:59:34;;;;;;;47.20;24.85;;;;;;;0.64;100.00;99117.44;5053095;28;20037;-77
2021/12/05 05:02:05;;;;;;;48.83;24.70;;;;;;;0.66;100.00;99121.72;5052545;28;20060;-72
2021/12/05 05:04:42;;;;;;;44.80;24.17;;;;;;;0.75;100.00;99123.13;5052701;28;20033;-72
2021/12/05 05:07:17;;;;;;;44.95;24.45;;;;;;;0.70;100.00;99117.22;5052928;28;20421;-72
2021/12/05 05:09:46;;;;;;;49.00;25.02;;;;;;;0.59;100.00;99124.66;5052062;28;20497;-72
2021/12/05 05:12:15;;;;;;;49.33;26.52;;;;;;;0.55;100.00;99129.16;5052829;28;20045;-71
2021/12/05 05:14:43;;;;;;;50.78;25.15;;;;;;;0.56;100.00;99121.22;5052948;28;20047;-71
2021/12/05 05:17:12;;;;;;;49.10;25.85;;;;;;;0.71;100.00;99098.78;5055723;28;20052;-71
2021/12/05 05:19:45;;;;;;;46.28;25.52;;;;;;;0.72;100.00;99099.66;5055676;28;20111;-71
2021/12/05 05:22:25;;;;;;;47.50;24.88;;;;;;;0.59;100.00;99120.25;5056849;28;20049;-71
2021/12/05 05:28:19;;;;;;;49.03;24.30;;;;;;;0.49;100.00;99114.50;5056793;28;20067;-70
2021/12/05 05:39:00;;;;;;;42.92;23.45;;;;;;;0.46;100.00;99122.47;5056254;28;20151;-75
2021/12/05 05:39:55;;;;;;;46.92;24.30;;;;;;;0.56;100.00;99139.56;5034131;28;20188;-73
2021/12/05 05:45:34;;;;;;;50.08;25.23;;;;;;;0.59;100.00;99138.63;5054747;28;20154;-73
2021/12/05 05:48:16;;;;;;;46.13;23.17;;;;;;;0.74;100.00;99134.56;5055915;28;20048;-73
2021/12/05 05:50:46;;;;;;;42.33;23.20;;;;;;;0.77;100.00;99142.31;5056064;28;20072;-74
2021/12/05 05:53:15;;;;;;;47.00;24.35;;;;;;;0.65;100.00;99142.78;5055264;28;20059;-74
2021/12/05 05:55:43;;;;;;;46.13;24.00;;;;;;;0.75;100.00;99142.38;5055897;28;20064;-72
2021/12/05 05:58:14;;;;;;;46.78;25.08;;;;;;;0.74;100.00;99140.66;5055566;28;20060;-72
2021/12/05 06:00:57;;;;;;;46.03;24.10;;;;;;;0.68;100.00;99146.16;5056061;28;20053;-73
2021/12/05 06:03:25;;;;;;;47.05;25.15;;;;;;;0.83;100.00;99139.47;5056010;28;20040;-72
2021/12/05 06:05:58;;;;;;;46.85;24.00;;;;;;;0.93;100.00;99140.81;5055668;28;20041;-73
2021/12/05 06:08:32;;;;;;;43.37;23.90;;;;;;;0.88;100.00;99142.78;5055480;28;20049;-73
2021/12/05 06:11:04;;;;;;;46.88;24.38;;;;;;;0.82;100.00;99143.00;5055536;28;20278;-74
2021/12/05 06:13:34;;;;;;;47.63;24.55;;;;;;;0.77;100.00;99145.81;5055384;28;20090;-74
2021/12/05 06:16:03;;;;;;;44.60;24.15;;;;;;;0.93;100.00;99150.47;5055315;28;20033;-74
2021/12/05 06:18:32;;;;;;;47.85;24.27;;;;;;;0.92;100.00;99148.75;5055846;28;20055;-73
2021/12/05 06:21:01;;;;;;;43.25;24.33;;;;;;;0.91;100.00;99163.66;5055274;28;20045;-73
2021/12/05 06:23:30;;;;;;;45.33;24.77;;;;;;;0.99;100.00;99156.34;5055137;28;20102;-71
2021/12/05 06:26:00;;;;;;;48.50;24.85;;;;;;;1.01;100.00;99157.13;5055077;28;20048;-71
2021/12/05 06:28:34;;;;;;;54.13;26.55;;;;;;;0.77;100.00;99155.44;5054937;28;20068;-72
2021/12/05 06:31:12;;;;;;;49.15;25.05;;;;;;;0.76;100.00;99154.56;5055145;28;20037;-72
2021/12/05 06:39:26;;;;;;;50.78;27.60;;;;;;;0.65;100.00;99163.78;5054880;28;20091;-72
2021/12/05 06:42:06;;;;;;;50.60;26.38;;;;;;;0.72;100.00;99160.00;5054914;28;20048;-73
2021/12/05 06:47:26;;;;;;;43.17;23.95;;;;;;;0.81;100.00;99157.03;5029626;28;20064;-70
2021/12/05 06:49:55;;;;;;;46.65;24.83;;;;;;;0.84;100.00;99164.78;5053930;28;20402;-70
2021/12/05 06:52:42;;;;;;;48.33;24.67;;;;;;;0.83;100.00;99160.47;5054683;28;20041;-71
2021/12/05 06:55:13;;;;;;;48.15;23.55;;;;;;;0.97;100.00;99158.19;5054737;28;20079;-72
2021/12/05 06:57:42;;;;;;;44.13;23.58;;;;;;;1.01;100.00;99162.38;5055030;28;20041;-72
2021/12/05 07:00:14;;;;;;;43.05;22.98;;;;;;;0.94;100.00;99171.41;5054631;28;20041;-74
2021/12/05 07:02:43;;;;;;;47.50;24.73;;;;;;;0.90;100.00;99172.44;5054953;28;20045;-71
2021/12/05 07:07:56;;;;;;;48.17;24.73;;;;;;;0.92;100.00;99180.25;5045702;28;20063;-71
2021/12/05 07:10:25;;;;;;;51.35;25.23;;;;;;;0.77;100.00;99186.94;5053706;28;20048;-71
2021/12/05 07:15:52;;;;;;;51.03;25.90;;;;;;;0.91;100.00;99184.66;5054820;28;20037;-71
2021/12/05 07:23:57;;;;;;;52.58;26.20;;;;;;;0.98;100.00;99191.41;5053436;28;20490;-74
2021/12/05 07:26:42;;;;;;;53.67;27.00;;;;;;;0.93;100.00;99193.31;5054114;28;20371;-74
2021/12/05 07:40:24;;;;;;;54.28;28.02;;;;;;;0.79;100.00;99164.97;5052956;28;20049;-72
2021/12/05 07:42:56;;;;;;;55.72;29.38;;;;;;;0.95;100.00;99173.13;5054177;28;20482;-71
2021/12/05 07:45:32;;;;;;;56.42;27.73;;;;;;;1.10;100.00;99169.91;5054184;28;20079;-72
2021/12/05 07:48:07;;;;;;;52.65;26.77;;;;;;;1.43;100.00;99177.38;5053493;28;20497;-71
2021/12/05 07:50:42;;;;;;;51.55;27.08;;;;;;;1.37;100.00;99182.88;5053645;28;20060;-72
2021/12/05 07:53:18;;;;;;;53.30;26.25;;;;;;;1.31;100.00;99194.47;5053659;28;20045;-72
2021/12/05 07:55:51;;;;;;;48.33;27.15;;;;;;;1.33;100.00;99190.00;5053910;28;20049;-71
2021/12/05 07:58:44;;;;;;;52.25;26.27;;;;;;;1.46;100.00;99200.91;5053686;28;20050;-72
2021/12/05 08:14:20;;;;;;;;;;;;;;;1.39;100.00;99208.19;5054029;28;20037;-73
2021/12/05 08:15:17;;;;;;;50.92;25.55;;;;;;;1.69;100.00;99199.97;5053936;28;20120;-70
2021/12/05 08:17:51;;;;;;;;;;;;;;;1.87;100.00;99206.25;5056410;28;20041;-71
2021/12/05 08:20:24;;;;;;;47.58;26.33;;;;;;;1.87;100.00;99208.91;5053071;28;19921;-71
2021/12/05 08:22:52;;;;;;;54.47;27.17;;;;;;;1.78;100.00;99210.13;5053608;28;20474;-72
2021/12/05 08:25:26;;;;;;;53.28;26.60;;;;;;;1.92;100.00;99220.91;5052883;28;20506;-73
2021/12/05 08:28:06;;;;;;;51.83;26.33;;;;;;;1.73;100.00;99218.19;5053552;28;20045;-72
2021/12/05 08:30:38;;;;;;;50.15;26.52;;;;;;;1.72;100.00;99216.47;5053260;28;20044;-73
2021/12/05 08:33:33;;;;;;;56.22;27.30;;;;;;;1.74;100.00;99213.81;5052976;28;20041;-72
2021/12/05 09:21:04;;;;;;;50.75;25.58;;;;;;;1.60;100.00;99209.09;5052295;28;20402;-70
2021/12/05 09:29:36;;;;;;;47.58;26.00;;;;;;;1.84;100.00;99196.72;5049343;28;20055;-72
2021/12/05 10:02:51;;;;;;;49.20;27.25;;;;;;;1.69;100.00;99173.69;5072976;28;20055;-67
2021/12/05 10:08:40;;;;;;;51.75;27.65;;;;;;;1.74;100.00;99166.47;5075510;28;20045;-68
2021/12/05 10:11:32;;;;;;;51.28;27.88;;;;;;;1.63;100.00;99164.28;5075719;28;20044;-68
2021/12/05 10:14:17;;;;;;;58.60;28.15;;;;;;;1.58;100.00;99154.88;5075631;28;20040;-66
2021/12/05 10:17:20;;;;;;;57.58;29.80;;;;;;;1.63;100.00;99159.00;5075656;28;20044;-66
2021/12/05 10:33:45;;;;;;;59.85;30.73;;;;;;;1.54;100.00;99177.78;5075614;28;20041;-67
2021/12/05 10:36:19;;;;;;;63.05;31.13;;;;;;;1.55;100.00;99174.25;5075302;28;20037;-68
2021/12/05 10:38:54;;;;;;;56.53;29.15;;;;;;;1.63;100.00;99166.91;5075410;28;20498;-68
2021/12/05 10:41:47;;;;;;;60.50;29.23;;;;;;;1.50;100.00;99168.31;5075220;28;20124;-67
2021/12/05 10:44:17;;;;;;;57.27;28.13;;;;;;;1.40;100.00;99167.00;5075152;28;20115;-67
2021/12/05 10:46:50;;;;;;;59.00;26.85;;;;;;;1.31;100.00;99162.09;5075425;28;20295;-67
2021/12/05 10:49:19;;;;;;;63.17;28.73;;;;;;;1.46;100.00;99158.88;5075039;28;20056;-67
2021/12/05 10:51:49;;;;;;;64.07;30.13;;;;;;;1.46;100.00;99150.13;5075038;28;20045;-66
2021/12/05 10:54:20;;;;;;;63.22;30.35;;;;;;;1.34;100.00;99146.19;5074908;28;20040;-68
2021/12/05 10:56:53;;;;;;;60.40;29.02;;;;;;;1.31;100.00;99147.19;5074986;28;20044;-67
2021/12/05 10:59:26;;;;;;;65.68;29.75;;;;;;;1.42;100.00;99154.63;5074952;28;20228;-68
2021/12/05 11:01:57;;;;;;;65.82;30.88;;;;;;;1.41;100.00;99147.69;5075032;28;20045;-68
2021/12/05 11:04:28;;;;;;;67.75;31.92;;;;;;;1.26;100.00;99143.91;5074538;28;20044;-68
2021/12/05 11:06:59;;;;;;;67.60;30.50;;;;;;;1.57;100.00;99146.13;5074962;28;20044;-67
2021/12/05 11:09:34;;;;;;;68.57;30.33;;;;;;;1.54;100.00;99138.34;5074734;28;20045;-67
2021/12/05 11:12:08;;;;;;;72.22;31.40;;;;;;;1.50;100.00;99141.19;5074820;28;20136;-66
2021/12/05 11:14:39;;;;;;;71.20;31.13;;;;;;;1.51;100.00;99138.50;5073977;28;20506;-68
2021/12/05 11:17:09;;;;;;;70.28;31.33;;;;;;;1.48;100.00;99140.41;5074550;28;20048;-66
2021/12/05 11:19:41;;;;;;;70.40;30.55;;;;;;;1.35;100.00;99143.53;5074656;28;20114;-67
2021/12/05 11:22:16;;;;;;;74.22;32.25;;;;;;;1.39;100.00;99128.50;5074520;28;20045;-67
2021/12/05 11:24:47;;;;;;;69.57;30.58;;;;;;;1.36;100.00;99118.13;5074311;28;20044;-67
2021/12/05 11:27:22;;;;;;;75.18;31.10;;;;;;;1.36;100.00;99129.47;5074240;28;20474;-68
2021/12/05 11:30:13;;;;;;;74.65;30.52;;;;;;;1.38;100.00;99125.00;5074472;28;20051;-67
2021/12/05 11:32:45;;;;;;;74.40;30.55;;;;;;;1.47;100.00;99136.06;5074552;28;20078;-67
2021/12/05 11:35:33;;;;;;;74.68;29.60;;;;;;;1.50;100.00;99128.91;5073876;28;20043;-74
2021/12/05 11:38:06;;;;;;;73.55;29.85;;;;;;;1.55;100.00;99132.22;5073933;28;20094;-66
2021/12/05 11:40:51;;;;;;;73.60;30.65;;;;;;;1.53;100.00;99135.81;5073958;28;20548;-67
2021/12/05 11:43:23;;;;;;;73.65;30.15;;;;;;;1.63;100.00;99132.72;5074291;28;20072;-66
2021/12/05 11:46:03;;;;;;;65.65;28.17;;;;;;;1.62;100.00;99128.38;5074214;28;20502;-66
2021/12/05 11:48:35;;;;;;;69.25;27.30;;;;;;;1.53;100.00;99127.91;5073610;28;20494;-67
2021/12/05 11:51:19;;;;;;;68.50;29.13;;;;;;;1.34;100.00;99125.19;5074065;28;20048;-67
2021/12/05 11:53:50;;;;;;;69.32;27.92;;;;;;;1.36;100.00;99118.97;5074024;28;20443;-67
2021/12/05 11:56:37;;;;;;;72.32;28.63;;;;;;;1.17;100.00;99127.66;5073958;28;20123;-67
2021/12/05 11:59:09;;;;;;;70.00;29.25;;;;;;;1.29;100.00;99135.91;5073881;28;20045;-66
2021/12/05 12:01:42;;;;;;;79.63;29.70;;;;;;;1.15;100.00;99125.91;5073655;28;20040;-67
2021/12/05 12:04:13;;;;;;;76.03;31.45;;;;;;;1.22;100.00;99121.28;5072901;28;20048;-67
2021/12/05 12:06:43;;;;;;;82.95;29.67;;;;;;;1.38;100.00;99121.53;5073689;28;20486;-67
2021/12/05 12:09:15;;;;;;;63.90;26.90;;;;;;;1.45;100.00;99120.38;5074008;28;20049;-66
2021/12/05 12:11:43;;;;;;;76.93;29.83;;;;;;;1.37;100.00;99127.72;5072283;28;20059;-67
2021/12/05 12:14:12;;;;;;;75.95;30.15;;;;;;;1.38;100.00;99134.66;5073587;28;20044;-67
2021/12/05 12:16:46;;;;;;;72.88;29.92;;;;;;;1.45;100.00;99130.88;5073263;28;20071;-68
2021/12/05 12:19:20;;;;;;;75.25;29.27;;;;;;;1.55;100.00;99129.59;5073694;28;20473;-66
2021/12/05 12:21:52;;;;;;;70.38;28.30;;;;;;;1.61;100.00;99129.31;5073785;28;20040;-67
2021/12/05 12:24:21;;;;;;;75.93;29.05;;;;;;;1.45;100.00;99133.50;5073231;28;20041;-67
2021/12/05 12:26:49;;;;;;;74.80;29.85;;;;;;;1.26;100.00;99135.16;5072707;28;20043;-66
2021/12/05 12:29:18;;;;;;;83.25;31.73;;;;;;;1.29;100.00;99133.25;5073093;28;20047;-67
2021/12/05 12:31:50;;;;;;;76.63;29.27;;;;;;;1.49;100.00;99129.81;5073019;28;20072;-67
2021/12/05 12:34:21;;;;;;;75.18;27.50;;;;;;;1.44;100.00;99126.50;5073307;28;20047;-74
2021/12/05 12:36:52;;;;;;;74.72;29.00;;;;;;;1.44;100.00;99110.75;5073071;28;20378;-67
2021/12/05 12:39:33;;;;;;;79.60;29.73;;;;;;;1.41;100.00;99124.03;5072946;28;20091;-68
2021/12/05 12:42:05;;;;;;;;;;;;;;;1.52;100.00;99124.44;5073692;28;20090;-67
2021/12/05 12:44:34;;;;;;;78.30;28.70;;;;;;;1.53;100.00;99120.03;5073007;28;19926;-68
2021/12/05 12:47:06;;;;;;;67.28;24.05;;;;;;;1.33;100.00;99120.84;5073175;28;20094;-68
2021/12/05 12:49:37;;;;;;;80.90;29.83;;;;;;;1.42;100.00;99118.69;5072727;28;20428;-68
2021/12/05 12:52:10;;;;;;;79.65;29.38;;;;;;;1.37;100.00;99127.72;5073161;28;20133;-67
2021/12/05 12:54:42;;;;;;;85.38;31.02;;;;;;;1.48;100.00;99122.00;5072838;28;20040;-68
2021/12/05 12:57:14;;;;;;;81.80;29.85;;;;;;;1.54;100.00;99124.38;5072816;28;20474;-67
2021/12/05 12:59:55;;;;;;;76.47;30.15;;;;;;;1.44;100.00;99116.00;5073064;28;20083;-67
2021/12/05 13:02:38;;;;;;;87.43;29.85;;;;;;;1.32;100.00;99112.13;5073189;28;20076;-68
2021/12/05 13:05:34;;;;;;;80.95;31.00;;;;;;;1.34;100.00;99097.13;5072799;28;20490;-67
2021/12/05 13:10:59;;;;;;;94.57;31.70;;;;;;;1.32;100.00;99103.38;5073029;28;20053;-67
2021/12/05 13:13:32;;;;;;;82.43;31.95;;;;;;;1.31;100.00;99091.16;5072978;28;20045;-68
2021/12/05 13:16:10;;;;;;;;;;;;;;;1.23;100.00;99074.84;5073378;28;20040;-67
2021/12/05 13:18:40;;;;;;;68.82;25.25;;;;;;;1.21;100.00;99071.44;5072545;28;20309;-68
2021/12/05 13:21:10;;;;;;;87.43;32.72;;;;;;;1.34;100.00;99068.22;5072596;28;20505;-67
2021/12/05 13:23:42;;;;;;;84.55;31.73;;;;;;;1.42;100.00;99081.06;5072422;28;20075;-69
2021/12/05 13:26:19;;;;;;;90.00;31.77;;;;;;;1.43;100.00;99088.03;5072894;28;20102;-69
2021/12/05 13:28:49;;;;;;;77.95;29.92;;;;;;;1.50;100.00;99088.63;5072125;28;20041;-69
2021/12/05 13:31:38;;;;;;;80.53;30.70;;;;;;;1.40;100.00;99088.16;5072404;28;20044;-69
2021/12/05 13:34:46;;;;;;;75.03;29.90;;;;;;;1.41;100.00;99084.63;5072839;28;20052;-68
2021/12/05 13:37:37;;;;;;;75.85;28.40;;;;;;;1.51;100.00;99070.16;5072590;28;20085;-67
2021/12/05 13:40:12;;;;;;;81.00;30.90;;;;;;;1.35;100.00;99069.09;5073659;28;20052;-67
2021/12/05 13:42:46;;;;;;;80.43;30.02;;;;;;;1.23;100.00;99061.72;5076219;28;20074;-66
2021/12/05 13:45:33;;;;;;;70.80;28.55;;;;;;;1.22;100.00;99070.53;5076603;28;20461;-64
2021/12/05 13:48:19;;;;;;;81.70;30.35;;;;;;;1.25;100.00;99054.63;5076366;28;20036;-66
2021/12/05 13:50:55;;;;;;;86.78;29.80;;;;;;;1.24;100.00;99050.28;5076150;28;20044;-66
2021/12/05 13:53:29;;;;;;;94.28;30.35;;;;;;;1.24;100.00;99048.50;5076085;28;20068;-66
2021/12/05 13:56:07;;;;;;;92.35;33.47;;;;;;;1.21;100.00;99050.44;5076183;28;20086;-65
2021/12/05 13:58:48;;;;;;;93.50;32.17;;;;;;;1.29;100.00;99053.59;5075969;28;20450;-66
2021/12/05 14:01:23;;;;;;;91.90;32.47;;;;;;;1.25;100.00;99067.75;5076227;28;20040;-66
2021/12/05 14:04:27;;;;;;;91.60;33.92;;;;;;;1.32;100.00;99069.22;5075989;28;20063;-66
2021/12/05 14:07:01;;;;;;;89.65;32.22;;;;;;;1.34;100.00;99077.88;5075725;28;20044;-67
2021/12/05 14:09:35;;;;;;;93.03;32.90;;;;;;;1.48;100.00;99075.56;5074980;28;20069;-67
2021/12/05 14:12:11;;;;;;;87.57;32.45;;;;;;;1.43;100.00;99088.03;5075470;28;20090;-67
2021/12/05 14:14:43;;;;;;;93.95;33.80;;;;;;;1.47;100.00;99088.78;5075627;28;20098;-66
2021/12/05 14:17:16;;;;;;;95.45;33.95;;;;;;;1.45;100.00;99078.31;5076313;28;20051;-67
2021/12/05 14:19:48;;;;;;;77.00;31.95;;;;;;;1.43;100.00;99072.25;5075689;28;20079;-66
2021/12/05 14:22:19;;;;;;;84.93;33.10;;;;;;;1.43;100.00;99077.50;5075977;28;20047;-67
2021/12/05 14:24:51;;;;;;;90.80;35.28;;;;;;;1.49;100.00;99077.25;5075605;28;20535;-67
2021/12/05 14:27:23;;;;;;;89.57;34.08;;;;;;;1.47;100.00;99083.50;5075521;28;20405;-67
2021/12/05 14:29:53;;;;;;;89.55;35.42;;;;;;;1.57;100.00;99085.69;5075661;28;20134;-67
2021/12/05 14:32:24;;;;;;;97.65;36.72;;;;;;;1.49;100.00;99082.53;5075609;28;20052;-67
2021/12/05 14:34:53;;;;;;;89.35;33.75;;;;;;;1.45;100.00;99088.84;5075298;28;20128;-67
2021/12/05 14:37:25;;;;;;;93.68;32.38;;;;;;;1.44;100.00;99106.34;5075294;28;20448;-67
2021/12/05 14:39:55;;;;;;;89.30;33.28;;;;;;;1.57;100.00;99111.13;5075571;28;20064;-66
2021/12/05 14:42:27;;;;;;;93.53;33.45;;;;;;;1.66;100.00;99111.59;5075539;28;20044;-66
2021/12/05 14:44:58;;;;;;;88.85;33.60;;;;;;;1.73;100.00;99109.53;5075089;28;20519;-67
2021/12/05 14:47:30;;;;;;;86.45;33.55;;;;;;;1.62;100.00;99117.88;5075101;28;20068;-67
2021/12/05 14:50:00;;;;;;;77.85;30.52;;;;;;;1.47;100.00;99110.66;5074930;28;20041;-65
2021/12/05 14:52:33;;;;;;;75.30;28.98;;;;;;;1.34;100.00;99114.69;5074934;28;20448;-65
2021/12/05 14:55:02;;;;;;;73.63;30.13;;;;;;;1.29;100.00;99116.66;5075120;28;20041;-65
2021/12/05 14:57:34;;;;;;;85.40;31.17;;;;;;;1.35;100.00;99116.38;5074898;28;20037;-68
2021/12/05 15:00:08;;;;;;;85.43;31.38;;;;;;;1.36;100.00;99116.34;5075103;28;20047;-66
2021/12/05 15:02:37;;;;;;;89.45;34.08;;;;;;;1.38;100.00;99125.00;5074801;28;20436;-66
2021/12/05 15:05:10;;;;;;;85.50;31.92;;;;;;;1.45;100.00;99125.63;5074926;28;20092;-65
2021/12/05 15:07:41;;;;;;;83.93;33.30;;;;;;;1.49;100.00;99129.81;5074595;28;20072;-66
2021/12/05 15:10:11;;;;;;;89.32;33.28;;;;;;;1.65;100.00;99123.03;5074988;28;20079;-65
2021/12/05 15:12:39;;;;;;;78.95;33.38;;;;;;;1.58;100.00;99118.09;5074434;28;20044;-65
2021/12/05 15:15:12;;;;;;;79.13;32.40;;;;;;;1.50;100.00;99112.28;5074739;28;20055;-65
2021/12/05 15:17:41;;;;;;;;;;;;;;;1.54;100.00;99119.09;5074793;28;20072;-67
2021/12/05 15:20:13;;;;;;;75.68;30.00;;;;;;;1.55;100.00;99119.06;5074622;28;19920;-66
2021/12/05 15:22:46;;;;;;;85.70;32.90;;;;;;;1.45;100.00;99117.75;5074409;28;20047;-67
2021/12/05 15:25:17;;;;;;;77.30;31.52;;;;;;;1.56;100.00;99112.91;5073039;28;20052;-66
2021/12/05 15:27:48;;;;;;;76.00;30.35;;;;;;;1.50;100.00;99110.50;5074310;28;20048;-66
2021/12/05 15:30:18;;;;;;;77.47;30.95;;;;;;;1.38;100.00;99103.13;5074650;28;20056;-66
2021/12/05 15:32:52;;;;;;;82.18;30.50;;;;;;;1.36;100.00;99099.72;5074219;28;20044;-67
2021/12/05 15:35:21;;;;;;;;;;;;;;;1.42;100.00;99108.19;5074785;28;20040;-66
2021/12/05 15:37:52;;;;;;;85.43;31.33;;;;;;;1.44;100.00;99110.75;5072878;28;20399;-68
2021/12/05 15:40:22;;;;;;;86.75;31.92;;;;;;;1.34;100.00;99105.00;5073712;28;20098;-66
2021/12/05 15:42:59;;;;;;;81.47;32.07;;;;;;;1.32;100.00;99096.34;5073617;28;20113;-66
2021/12/05 15:45:28;;;;;;;83.85;32.65;;;;;;;1.49;100.00;99093.03;5073686;28;20277;-66
2021/12/05 15:47:58;;;;;;;81.45;29.95;;;;;;;1.40;100.00;99103.94;5073643;28;20101;-67
2021/12/05 15:50:30;;;;;;;81.93;32.10;;;;;;;1.41;100.00;99100.38;5073635;28;20044;-67
2021/12/05 15:53:02;;;;;;;84.18;30.52;;;;;;;1.38;100.00;99113.66;5073261;28;20036;-68
2021/12/05 15:55:33;;;;;;;83.95;32.53;;;;;;;1.39;100.00;99118.84;5073874;28;20426;-67
2021/12/05 15:58:07;;;;;;;85.70;30.83;;;;;;;1.41;100.00;99127.50;5073318;28;20066;-67
2021/12/05 16:00:39;;;;;;;80.28;31.23;;;;;;;1.46;100.00;99114.19;5073000;28;20055;-67
2021/12/05 16:03:10;;;;;;;84.87;30.47;;;;;;;1.42;100.00;99107.34;5073708;28;20055;-68
2021/12/05 16:05:42;;;;;;;80.40;29.00;;;;;;;1.45;100.00;99109.88;5073390;28;20505;-68
2021/12/05 16:08:14;;;;;;;81.65;30.65;;;;;;;1.38;100.00;99113.66;5073664;28;20447;-68
2021/12/05 16:10:45;;;;;;;84.10;30.65;;;;;;;1.36;100.00;99102.34;5073266;28;20072;-68
2021/12/05 16:13:16;;;;;;;85.28;28.48;;;;;;;1.29;100.00;99106.13;5073730;28;20052;-67